Time,TemperatureF,DewpointF,PressureIn,WindDirection,WindDirectionDegrees,WindSpeedMPH,WindSpeedGustMPH,Humidity,HourlyPrecipIn,Conditions,Clouds,dailyrainin,SolarRadiationWatts/m^2,SoftwareType,DateUTC
2013-06-19 00:14:00,47.8,43.0,30.05,ENE,62,0.0,1.0,84,0.00,,,0.00,0,weatherlink.com 1.10,2013-06-19 04:14:00,
2013-06-19 00:29:00,47.6,44.0,30.05,ENE,62,0.0,0.0,86,0.00,,,0.00,0,weatherlink.com 1.10,2013-06-19 04:29:00,
2013-06-19 00:44:00,47.3,43.0,30.05,ENE,62,0.0,0.0,85,0.00,,,0.00,0,weatherlink.com 1.10,2013-06-19 04:44:00,
2013-06-19 01:00:00,47.0,43.0,30.05,ENE,62,0.0,0.0,85,0.00,,,0.00,0,weatherlink.com 1.10,2013-06-19 05:00:00,
2013-06-19 01:15:00,46.9,43.0,30.05,ENE,62,0.0,0.0,86,0.00,,,0.00,0,weatherlink.com 1.10,2013-06-19 05:15:00,
2013-06-19 01:30:00,47.0,43.0,30.05,ENE,62,0.0,0.0,85,0.00,,,0.00,0,weatherlink.com 1.10,2013-06-19 05:30:00,
2013-06-19 01:45:00,47.0,42.0,30.05,ENE,62,0.0,0.0,84,0.00,,,0.00,0,weatherlink.com 1.10,2013-06-19 05:45:00,
2013-06-19 02:00:00,47.0,42.0,30.05,ENE,62,0.0,0.0,83,0.00,,,0.00,0,weatherlink.com 1.10,2013-06-19 06:00:00,
2013-06-19 02:15:00,46.7,43.0,30.05,ENE,62,0.0,0.0,85,0.00,,,0.00,0,weatherlink.com 1.10,2013-06-19 06:15:00,
2013-06-19 02:30:00,46.3,42.0,30.05,ENE,62,0.0,0.0,85,0.00,,,0.00,0,weatherlink.com 1.10,2013-06-19 06:30:00,
2013-06-19 02:45:00,46.6,42.0,30.05,East,84,0.0,3.0,85,0.00,,,0.00,0,weatherlink.com 1.10,2013-06-19 06:45:00,
2013-06-19 03:00:00,47.9,44.0,30.05,South,173,0.0,4.0,85,0.00,,,0.00,0,weatherlink.com 1.10,2013-06-19 07:00:00,
2013-06-19 03:15:00,48.5,43.0,30.05,SE,146,0.0,4.0,80,0.00,,,0.00,0,weatherlink.com 1.10,2013-06-19 07:15:00,
2013-06-19 03:30:00,49.2,43.0,30.05,SSE,168,0.0,3.0,79,0.00,,,0.00,0,weatherlink.com 1.10,2013-06-19 07:30:00,
2013-06-19 03:45:00,49.5,43.0,30.05,South,169,0.0,3.0,78,0.00,,,0.00,0,weatherlink.com 1.10,2013-06-19 07:45:00,
2013-06-19 04:00:00,49.5,43.0,30.05,South,170,0.0,3.0,77,0.00,,,0.00,0,weatherlink.com 1.10,2013-06-19 08:00:00,
2013-06-19 04:15:00,50.1,43.0,30.05,South,187,0.0,2.0,76,0.00,,,0.00,0,weatherlink.com 1.10,2013-06-19 08:15:00,
2013-06-19 04:30:00,50.7,43.0,30.05,SSW,207,0.0,5.0,75,0.00,,,0.00,0,weatherlink.com 1.10,2013-06-19 08:30:00,
2013-06-19 04:45:00,51.1,43.0,30.05,SSE,153,2.0,3.0,75,0.00,,,0.00,0,weatherlink.com 1.10,2013-06-19 08:45:00,
2013-06-19 05:00:00,51.2,43.0,30.05,South,178,1.0,8.0,74,0.00,,,0.00,0,weatherlink.com 1.10,2013-06-19 09:00:00,
2013-06-19 05:15:00,51.1,43.0,30.06,SSE,164,1.0,4.0,75,0.00,,,0.00,0,weatherlink.com 1.10,2013-06-19 09:15:00,
2013-06-19 05:30:00,50.8,43.0,30.06,SSE,157,0.0,4.0,75,0.00,,,0.00,0,weatherlink.com 1.10,2013-06-19 09:30:00,
2013-06-19 05:45:00,50.9,44.0,30.06,SE,126,1.0,7.0,76,0.00,,,0.00,0,weatherlink.com 1.10,2013-06-19 09:45:00,
2013-06-19 06:00:00,51.0,44.0,30.06,SSE,163,2.0,5.0,76,0.00,,,0.00,0,weatherlink.com 1.10,2013-06-19 10:00:00,
2013-06-19 06:15:00,51.2,44.0,30.07,SSW,200,2.0,6.0,75,0.00,,,0.00,7,weatherlink.com 1.10,2013-06-19 10:15:00,
2013-06-19 06:30:00,51.7,44.0,30.06,SSW,195,0.0,4.0,75,0.00,,,0.00,12,weatherlink.com 1.10,2013-06-19 10:30:00,
2013-06-19 06:45:00,52.3,44.0,30.06,SSE,157,3.0,8.0,74,0.00,,,0.00,26,weatherlink.com 1.10,2013-06-19 10:45:00,
2013-06-19 07:00:00,53.4,44.0,30.06,SSE,159,5.0,6.0,71,0.00,,,0.00,83,weatherlink.com 1.10,2013-06-19 11:00:00,
2013-06-19 07:15:00,55.0,45.0,30.06,South,169,2.0,7.0,68,0.00,,,0.00,118,weatherlink.com 1.10,2013-06-19 11:15:00,
2013-06-19 07:30:00,55.9,45.0,30.07,SSE,159,4.0,8.0,66,0.00,,,0.00,51,weatherlink.com 1.10,2013-06-19 11:30:00,
2013-06-19 07:45:00,56.8,45.0,30.07,South,186,1.0,8.0,65,0.00,,,0.00,81,weatherlink.com 1.10,2013-06-19 11:45:00,
2013-06-19 08:00:00,58.2,45.0,30.07,South,173,3.0,7.0,63,0.00,,,0.00,69,weatherlink.com 1.10,2013-06-19 12:00:00,
2013-06-19 08:15:00,59.6,45.0,30.07,SSW,194,6.0,7.0,60,0.00,,,0.00,104,weatherlink.com 1.10,2013-06-19 12:15:00,
2013-06-19 08:31:00,61.0,46.0,30.07,SE,143,2.0,7.0,58,0.00,,,0.00,109,weatherlink.com 1.10,2013-06-19 12:31:00,
2013-06-19 08:46:00,61.9,45.0,30.07,South,176,1.0,11.0,55,0.00,,,0.00,388,weatherlink.com 1.10,2013-06-19 12:46:00,
2013-06-19 09:01:00,63.7,47.0,30.07,SSW,202,5.0,6.0,54,0.00,,,0.00,446,weatherlink.com 1.10,2013-06-19 13:01:00,
2013-06-19 09:16:00,64.8,46.0,30.06,South,169,6.0,11.0,50,0.00,,,0.00,490,weatherlink.com 1.10,2013-06-19 13:16:00,
2013-06-19 09:31:00,65.2,45.0,30.07,SSW,194,7.0,12.0,49,0.00,,,0.00,534,weatherlink.com 1.10,2013-06-19 13:31:00,
2013-06-19 09:46:00,65.9,45.0,30.07,SE,131,5.0,9.0,48,0.00,,,0.00,573,weatherlink.com 1.10,2013-06-19 13:46:00,
2013-06-19 10:01:00,66.8,46.0,30.06,SSW,194,2.0,12.0,47,0.00,,,0.00,617,weatherlink.com 1.10,2013-06-19 14:01:00,
2013-06-19 10:16:00,68.1,46.0,30.06,SSE,165,3.0,9.0,45,0.00,,,0.00,654,weatherlink.com 1.10,2013-06-19 14:16:00,
2013-06-19 10:31:00,68.1,48.0,30.06,SSE,167,3.0,11.0,48,0.00,,,0.00,691,weatherlink.com 1.10,2013-06-19 14:31:00,
2013-06-19 10:46:00,69.3,47.0,30.06,WSW,240,3.0,11.0,45,0.00,,,0.00,729,weatherlink.com 1.10,2013-06-19 14:46:00,
2013-06-19 11:01:00,70.5,49.0,30.06,South,178,3.0,6.0,47,0.00,,,0.00,763,weatherlink.com 1.10,2013-06-19 15:01:00,
2013-06-19 11:31:00,71.0,48.0,30.05,SSE,168,6.0,11.0,44,0.00,,,0.00,824,weatherlink.com 1.10,2013-06-19 15:31:00,
2013-06-19 11:46:00,72.6,50.0,30.04,SSE,150,6.0,6.0,45,0.00,,,0.00,851,weatherlink.com 1.10,2013-06-19 15:46:00,
2013-06-19 12:02:00,72.7,49.0,30.04,SSE,147,1.0,9.0,43,0.00,,,0.00,874,weatherlink.com 1.10,2013-06-19 16:02:00,
2013-06-19 12:17:00,73.5,49.0,30.03,South,186,4.0,8.0,42,0.00,,,0.00,895,weatherlink.com 1.10,2013-06-19 16:17:00,
2013-06-19 12:32:00,74.4,53.0,30.03,SSW,205,1.0,7.0,47,0.00,,,0.00,911,weatherlink.com 1.10,2013-06-19 16:32:00,
2013-06-19 12:47:00,74.0,50.0,30.03,NW,326,0.0,10.0,43,0.00,,,0.00,923,weatherlink.com 1.10,2013-06-19 16:47:00,
2013-06-19 13:02:00,75.1,49.0,30.03,SW,234,4.0,9.0,40,0.00,,,0.00,937,weatherlink.com 1.10,2013-06-19 17:02:00,
2013-06-19 13:17:00,75.7,49.0,30.03,South,171,2.0,6.0,39,0.00,,,0.00,1021,weatherlink.com 1.10,2013-06-19 17:17:00,
2013-06-19 13:32:00,73.6,48.0,30.02,SSE,166,0.0,9.0,41,0.00,,,0.00,334,weatherlink.com 1.10,2013-06-19 17:32:00,
2013-06-19 13:47:00,73.8,49.0,30.02,SSE,161,2.0,9.0,42,0.00,,,0.00,976,weatherlink.com 1.10,2013-06-19 17:47:00,
2013-06-19 14:02:00,76.1,49.0,30.01,East,92,1.0,10.0,38,0.00,,,0.00,983,weatherlink.com 1.10,2013-06-19 18:02:00,
2013-06-19 14:17:00,76.2,51.0,30.01,SSE,152,0.0,11.0,41,0.00,,,0.00,1160,weatherlink.com 1.10,2013-06-19 18:17:00,
2013-06-19 14:32:00,74.8,51.0,30.00,South,169,1.0,7.0,43,0.00,,,0.00,253,weatherlink.com 1.10,2013-06-19 18:32:00,
2013-06-19 14:50:00,76.1,49.0,30.00,SSW,205,0.0,10.0,39,0.00,,,0.00,1109,weatherlink.com 1.10,2013-06-19 18:50:00,
2013-06-19 15:02:00,76.4,48.0,30.00,SSW,201,2.0,8.0,37,0.00,,,0.00,271,weatherlink.com 1.10,2013-06-19 19:02:00,
2013-06-19 15:17:00,75.8,48.0,29.99,South,170,3.0,10.0,37,0.00,,,0.00,258,weatherlink.com 1.10,2013-06-19 19:17:00,
2013-06-19 15:32:00,77.1,48.0,29.98,SSW,207,2.0,9.0,36,0.00,,,0.00,274,weatherlink.com 1.10,2013-06-19 19:32:00,
2013-06-19 15:47:00,77.3,47.0,29.98,South,180,2.0,8.0,34,0.00,,,0.00,1018,weatherlink.com 1.10,2013-06-19 19:47:00,
2013-06-19 16:02:00,77.1,52.0,29.97,SSE,168,1.0,6.0,41,0.00,,,0.00,963,weatherlink.com 1.10,2013-06-19 20:02:00,
2013-06-19 16:17:00,78.4,49.0,29.97,South,188,1.0,7.0,36,0.00,,,0.00,824,weatherlink.com 1.10,2013-06-19 20:17:00,
2013-06-19 16:32:00,78.5,50.0,29.96,South,169,1.0,7.0,37,0.00,,,0.00,795,weatherlink.com 1.10,2013-06-19 20:32:00,
2013-06-19 16:47:00,78.0,48.0,29.96,SSE,163,3.0,10.0,35,0.00,,,0.00,754,weatherlink.com 1.10,2013-06-19 20:47:00,
2013-06-19 17:02:00,78.1,48.0,29.96,SSE,162,8.0,9.0,35,0.00,,,0.00,715,weatherlink.com 1.10,2013-06-19 21:02:00,
2013-06-19 17:17:00,76.0,50.0,29.96,SW,217,2.0,7.0,40,0.00,,,0.00,251,weatherlink.com 1.10,2013-06-19 21:17:00,
2013-06-19 17:32:00,76.0,51.0,29.96,WSW,242,4.0,11.0,41,0.00,,,0.00,267,weatherlink.com 1.10,2013-06-19 21:32:00,
2013-06-19 17:47:00,75.8,49.0,29.96,South,186,6.0,12.0,39,0.00,,,0.00,114,weatherlink.com 1.10,2013-06-19 21:47:00,
2013-06-19 18:02:00,75.9,49.0,29.96,SSE,155,6.0,8.0,39,0.00,,,0.00,116,weatherlink.com 1.10,2013-06-19 22:02:00,
2013-06-19 18:17:00,75.9,50.0,29.95,South,190,4.0,15.0,40,0.00,,,0.00,111,weatherlink.com 1.10,2013-06-19 22:17:00,
2013-06-19 18:32:00,74.9,50.0,29.95,ESE,121,0.0,11.0,42,0.00,,,0.00,116,weatherlink.com 1.10,2013-06-19 22:32:00,
2013-06-19 18:47:00,74.3,51.0,29.95,SW,222,5.0,10.0,44,0.00,,,0.00,76,weatherlink.com 1.10,2013-06-19 22:47:00,
2013-06-19 19:02:00,74.4,51.0,29.95,SSE,166,3.0,7.0,44,0.00,,,0.00,44,weatherlink.com 1.10,2013-06-19 23:02:00,
2013-06-19 19:17:00,73.8,52.0,29.95,SSW,201,4.0,6.0,46,0.00,,,0.00,32,weatherlink.com 1.10,2013-06-19 23:17:00,
2013-06-19 19:32:00,73.1,52.0,29.95,SSW,208,5.0,9.0,48,0.00,,,0.00,21,weatherlink.com 1.10,2013-06-19 23:32:00,
2013-06-19 19:47:00,72.5,53.0,29.95,East,84,1.0,10.0,51,0.00,,,0.00,25,weatherlink.com 1.10,2013-06-19 23:47:00,
2013-06-19 20:02:00,72.4,53.0,29.95,South,179,4.0,11.0,51,0.00,,,0.00,21,weatherlink.com 1.10,2013-06-20 00:02:00,
2013-06-19 20:17:00,71.8,53.0,29.95,South,179,5.0,11.0,52,0.00,,,0.00,19,weatherlink.com 1.10,2013-06-20 00:17:00,
2013-06-19 20:32:00,71.1,52.0,29.96,South,172,3.0,7.0,52,0.00,,,0.00,14,weatherlink.com 1.10,2013-06-20 00:32:00,
2013-06-19 20:47:00,70.1,52.0,29.95,South,171,2.0,7.0,53,0.00,,,0.00,11,weatherlink.com 1.10,2013-06-20 00:47:00,
2013-06-19 21:17:00,68.7,52.0,29.95,SSW,202,1.0,9.0,56,0.00,,,0.00,7,weatherlink.com 1.10,2013-06-20 01:17:00,
2013-06-19 21:47:00,67.2,52.0,29.95,South,178,2.0,4.0,59,0.00,,,0.00,0,weatherlink.com 1.10,2013-06-20 01:47:00,
2013-06-19 22:02:00,66.5,52.0,29.96,SSE,150,1.0,6.0,61,0.00,,,0.00,0,weatherlink.com 1.10,2013-06-20 02:02:00,
2013-06-19 22:17:00,66.0,52.0,29.96,SSW,198,2.0,5.0,62,0.00,,,0.00,0,weatherlink.com 1.10,2013-06-20 02:17:00,
2013-06-19 22:32:00,65.4,52.0,29.97,WSW,246,3.0,6.0,62,0.00,,,0.00,0,weatherlink.com 1.10,2013-06-20 02:32:00,
2013-06-19 22:47:00,65.0,52.0,29.97,South,173,3.0,7.0,63,0.00,,,0.00,0,weatherlink.com 1.10,2013-06-20 02:47:00,
2013-06-19 23:02:00,64.7,52.0,29.97,South,182,1.0,8.0,63,0.00,,,0.00,0,weatherlink.com 1.10,2013-06-20 03:02:00,
2013-06-19 23:17:00,64.5,52.0,29.96,SSW,205,2.0,7.0,64,0.00,,,0.00,0,weatherlink.com 1.10,2013-06-20 03:17:00,
2013-06-19 23:33:00,64.1,52.0,29.97,SSE,161,4.0,10.0,64,0.00,,,0.00,0,weatherlink.com 1.10,2013-06-20 03:33:00,
2013-06-19 23:48:00,63.4,52.0,29.97,SE,135,3.0,9.0,66,0.00,,,0.00,0,weatherlink.com 1.10,2013-06-20 03:48:00,